Accueil
METAR-TAF:

METAR-TAF

Aéroports :

Aérodrome de Logrogne

Logroño, Espagne

latitude: 42-27N, longitude: 002-20W, altitude: 353 m

Observation

Le bulletin a été fait il y a 38 minutes, à 17:00 UTC
Vent 5 kt de nord-ouest, variant entre ouest/sud-ouest et nord-est
Température 28°C
Humidité 42%
Pression 1015 hPa
Visibilité 10 km ou plus
Quelques nuages à une hauteur de 5000 ft

METAR: LELO 281700Z 32005KT 250V050 9999 FEW050 28/14 Q1015

Heure: 19:38 (17:38 UTC)

Prévision

Le bulletin a été fait il y a 3 heures et 38 minutes, à 14:00 UTC
Prévision valable du 28 à 15 UTC au 29 à 15 UTC
Vent 5 kt de direction variable
Visibilité 10 km ou plus
Quelques nuages à une hauteur de 4000 ft
Temporairement
du 28 à 15 UTC au 28 à 20 UTC
Vent 10 kt de nord/nord-est

TAF: LELO 281400Z 2815/2915 VRB05KT 9999 FEW040 TX32/2915Z TN15/2905Z TEMPO 2815/2820 02010KT

Observations et prévisions météorologiques de plus de 4000 aéroports (messages METAR et TAF).

Les stations disponibles sont représentées par des disques jaunes et rouges sur la carte.

Passer la souris dessus pour voir le nom de la station.

Cliquer dessus pour voir les observations et prévisions météorologiques.

Pour changer de carte: cliquez sur les boutons verts avec une croix noire pour zoomer, sur le bouton vert avec un tiret pour effectuer un zoom arrière, ou sur les flèches vertes pour les cartes adjacentes.


METAR-TAF: